createdAt,value
2018-09-18T00:00:27.914Z,88.57
2018-09-18T00:02:57.196Z,88.85
2018-09-18T00:05:25.805Z,89.01
2018-09-18T00:07:57.129Z,88.07
2018-09-18T00:10:26.657Z,88.61
2018-09-18T00:12:57.160Z,89.12
2018-09-18T00:15:26.093Z,88.79
2018-09-18T00:17:57.913Z,89.11
2018-09-18T00:20:27.840Z,89.36
2018-09-18T00:22:57.654Z,88.98
2018-09-18T00:25:27.944Z,89.69
2018-09-18T00:27:58.312Z,89.34
2018-09-18T00:30:27.090Z,90.23
2018-09-18T00:32:57.064Z,89.79
2018-09-18T00:35:26.361Z,89.29
2018-09-18T00:37:56.785Z,90.30
2018-09-18T00:40:26.147Z,90.08
2018-09-18T00:42:56.004Z,91.95
2018-09-18T00:45:24.561Z,91.77
2018-09-18T00:47:53.539Z,92.58
2018-09-18T00:50:23.942Z,93.14
2018-09-18T00:52:53.030Z,93.94
2018-09-18T00:55:22.664Z,93.40
2018-09-18T00:57:51.057Z,95.00
2018-09-18T01:00:20.349Z,95.00
2018-09-18T01:02:49.506Z,95.55
2018-09-18T01:05:17.932Z,94.54
2018-09-18T01:07:47.194Z,94.81
2018-09-18T01:10:16.574Z,93.36
2018-09-18T01:12:44.985Z,92.68
2018-09-18T01:15:13.344Z,91.87
2018-09-18T01:17:41.669Z,92.10
2018-09-18T01:20:10.102Z,92.37
2018-09-18T01:22:38.412Z,92.96
2018-09-18T01:25:07.002Z,93.43
2018-09-18T01:27:36.317Z,94.24
2018-09-18T01:30:05.742Z,94.46
2018-09-18T01:32:34.933Z,94.89
2018-09-18T01:35:04.172Z,95.66
2018-09-18T01:37:32.484Z,95.03
2018-09-18T01:40:01.850Z,95.56
2018-09-18T01:42:30.223Z,96.26
2018-09-18T01:44:59.469Z,97.56
2018-09-18T01:47:29.167Z,98.78
2018-09-18T01:49:59.931Z,99.69
2018-09-18T01:52:29.215Z,100.00
2018-09-18T01:54:59.158Z,100.00
2018-09-18T01:57:29.345Z,100.00
2018-09-18T01:59:59.109Z,100.00
2018-09-18T02:02:28.084Z,100.00
2018-09-18T02:04:56.816Z,100.00
2018-09-18T02:07:26.149Z,100.00
2018-09-18T02:09:55.975Z,100.00
2018-09-18T02:12:24.866Z,100.00
2018-09-18T02:14:54.037Z,100.00
2018-09-18T02:17:22.516Z,100.00
2018-09-18T02:19:50.836Z,100.00
2018-09-18T02:22:19.189Z,100.00
2018-09-18T02:24:47.546Z,100.00
2018-09-18T02:27:15.868Z,100.00
2018-09-18T02:29:45.125Z,100.00
2018-09-18T02:32:13.453Z,100.00
2018-09-18T02:34:41.773Z,100.00
2018-09-18T02:37:10.105Z,100.00
2018-09-18T02:39:38.483Z,100.00
2018-09-18T02:42:07.009Z,100.00
2018-09-18T02:44:35.507Z,100.00
2018-09-18T02:47:03.844Z,100.00
2018-09-18T02:49:32.252Z,100.00
2018-09-18T02:52:00.655Z,100.00
2018-09-18T02:54:29.096Z,100.00
2018-09-18T02:56:58.797Z,100.00
2018-09-18T02:59:29.078Z,100.00
2018-09-18T03:01:58.243Z,100.00
2018-09-18T03:04:26.678Z,100.00
2018-09-18T03:06:57.098Z,100.00
2018-09-18T03:09:27.066Z,100.00
2018-09-18T03:11:57.645Z,100.00
2018-09-18T03:14:27.044Z,100.00
2018-09-18T03:16:58.612Z,99.41
2018-09-18T03:19:28.601Z,98.99
2018-09-18T03:21:58.661Z,98.38
2018-09-18T03:24:28.733Z,99.16
2018-09-18T03:26:58.053Z,98.99
2018-09-18T03:29:27.471Z,97.50
2018-09-18T03:31:55.816Z,98.48
2018-09-18T03:34:24.413Z,98.98
2018-09-18T03:36:53.703Z,99.54
2018-09-18T03:39:23.973Z,100.00
2018-09-18T03:41:54.644Z,100.00
2018-09-18T03:44:24.131Z,100.00
2018-09-18T03:46:54.273Z,100.00
2018-09-18T03:49:23.576Z,100.00
2018-09-18T03:51:53.249Z,100.00
2018-09-18T03:54:22.485Z,100.00
2018-09-18T03:56:51.692Z,100.00
2018-09-18T03:59:21.073Z,99.70
2018-09-18T04:01:49.393Z,99.46
2018-09-18T04:04:18.684Z,99.39
2018-09-18T04:06:47.890Z,100.00
2018-09-18T04:09:16.277Z,100.00
2018-09-18T04:11:45.534Z,100.00
2018-09-18T04:14:14.914Z,100.00
2018-09-18T04:16:44.320Z,100.00
2018-09-18T04:19:12.642Z,100.00
2018-09-18T04:21:42.968Z,100.00
2018-09-18T04:24:12.386Z,100.00
2018-09-18T04:26:42.197Z,100.00
2018-09-18T04:29:10.773Z,100.00
2018-09-18T04:31:40.536Z,100.00
2018-09-18T04:34:09.102Z,100.00
2018-09-18T04:36:37.648Z,100.00
2018-09-18T04:39:08.968Z,100.00
2018-09-18T04:41:38.277Z,100.00
2018-09-18T04:44:06.945Z,100.00
2018-09-18T04:46:35.298Z,100.00
2018-09-18T04:49:03.633Z,100.00
2018-09-18T04:51:32.024Z,100.00
2018-09-18T04:54:00.364Z,100.00
2018-09-18T04:56:29.105Z,100.00
2018-09-18T04:58:58.505Z,100.00
2018-09-18T05:01:27.373Z,100.00
2018-09-18T05:03:56.304Z,100.00
2018-09-18T05:06:27.487Z,100.00
2018-09-18T05:08:56.300Z,100.00
2018-09-18T05:11:27.289Z,100.00
2018-09-18T05:13:57.051Z,100.00
2018-09-18T05:16:27.589Z,100.00
2018-09-18T05:18:56.571Z,100.00
2018-09-18T05:21:27.261Z,100.00
2018-09-18T05:23:56.192Z,100.00
2018-09-18T05:26:26.441Z,100.00
2018-09-18T05:28:56.206Z,100.00
2018-09-18T05:31:26.147Z,100.00
2018-09-18T05:33:55.793Z,100.00
2018-09-18T05:36:27.165Z,100.00
2018-09-18T05:38:58.040Z,100.00
2018-09-18T05:41:29.035Z,100.00
2018-09-18T05:43:59.310Z,100.00
2018-09-18T05:46:28.673Z,100.00
2018-09-18T05:48:57.971Z,100.00
2018-09-18T05:51:26.301Z,100.00
2018-09-18T05:53:56.185Z,100.00
2018-09-18T05:56:25.087Z,99.58
2018-09-18T05:58:56.236Z,100.00
2018-09-18T06:01:25.266Z,99.98
2018-09-18T06:03:55.194Z,99.13
2018-09-18T06:06:25.736Z,98.32
2018-09-18T06:08:55.727Z,98.96
2018-09-18T06:11:25.221Z,98.45
2018-09-18T06:13:55.393Z,98.26
2018-09-18T06:16:27.280Z,98.08
2018-09-18T06:18:57.358Z,95.89
2018-09-18T06:21:27.338Z,96.88
2018-09-18T06:23:57.269Z,95.04
2018-09-18T06:26:27.225Z,95.32
2018-09-18T06:28:57.219Z,93.64
2018-09-18T06:31:26.171Z,92.45
2018-09-18T06:33:55.793Z,91.38
2018-09-18T06:36:27.512Z,91.77
2018-09-18T06:38:57.293Z,91.45
2018-09-18T06:41:27.261Z,90.16
2018-09-18T06:43:57.757Z,90.08
2018-09-18T06:46:28.273Z,90.07
2018-09-18T06:48:58.245Z,88.54
2018-09-18T06:51:28.861Z,87.74
2018-09-18T06:53:59.239Z,87.69
2018-09-18T06:56:28.905Z,87.59
2018-09-18T06:58:58.313Z,87.70
2018-09-18T07:01:28.469Z,85.80
2018-09-18T07:03:58.702Z,85.70
2018-09-18T07:06:28.242Z,85.93
2018-09-18T07:08:58.666Z,85.16
2018-09-18T07:11:28.061Z,84.73
2018-09-18T07:13:58.453Z,82.23
2018-09-18T07:16:29.179Z,81.48
2018-09-18T07:18:59.625Z,82.50
2018-09-18T07:21:28.458Z,79.29
2018-09-18T07:23:58.397Z,80.71
2018-09-18T07:26:27.045Z,78.62
2018-09-18T07:28:57.346Z,77.76
2018-09-18T07:31:27.220Z,80.20
2018-09-18T07:33:56.276Z,77.87
2018-09-18T07:36:25.290Z,77.45
2018-09-18T07:38:53.663Z,77.81
2018-09-18T07:41:22.005Z,77.96
2018-09-18T07:43:50.389Z,75.90
2018-09-18T07:46:18.865Z,74.50
2018-09-18T07:48:47.193Z,73.37
2018-09-18T07:51:15.617Z,73.37
2018-09-18T07:53:44.162Z,72.74
2018-09-18T07:56:12.596Z,71.99
2018-09-18T07:58:41.020Z,71.84
2018-09-18T08:01:09.353Z,70.67
2018-09-18T08:03:38.581Z,68.93
2018-09-18T08:06:06.997Z,68.76
2018-09-18T08:08:35.374Z,66.54
2018-09-18T08:11:03.788Z,66.93
2018-09-18T08:13:32.402Z,66.28
2018-09-18T08:16:02.905Z,65.78
2018-09-18T08:18:32.353Z,65.20
2018-09-18T08:21:00.877Z,64.55
2018-09-18T08:23:29.214Z,63.59
2018-09-18T08:26:00.412Z,62.95
2018-09-18T08:28:29.130Z,63.11
2018-09-18T08:30:58.458Z,63.92
2018-09-18T08:33:28.824Z,62.99
2018-09-18T08:35:57.409Z,62.05
2018-09-18T08:38:25.839Z,62.25
2018-09-18T08:40:55.115Z,60.76
2018-09-18T08:43:24.583Z,60.88
2018-09-18T08:45:53.647Z,60.78
2018-09-18T08:48:27.293Z,59.87
2018-09-18T08:50:57.094Z,59.65
2018-09-18T08:53:27.101Z,58.87
2018-09-18T08:55:58.414Z,58.69
2018-09-18T08:58:27.364Z,60.03
2018-09-18T09:00:57.476Z,60.47
2018-09-18T09:03:26.264Z,59.06
2018-09-18T09:05:55.034Z,57.59
2018-09-18T09:08:25.410Z,58.26
2018-09-18T09:10:54.799Z,58.89
2018-09-18T09:13:23.939Z,59.46
2018-09-18T09:15:53.036Z,57.24
2018-09-18T09:18:23.953Z,58.19
2018-09-18T09:20:54.084Z,56.24
2018-09-18T09:23:23.122Z,55.90
2018-09-18T09:25:51.465Z,57.11
2018-09-18T09:28:19.900Z,56.66
2018-09-18T09:30:49.283Z,54.99
2018-09-18T09:33:18.664Z,56.78
2018-09-18T09:35:47.934Z,54.24
2018-09-18T09:38:16.340Z,55.27
2018-09-18T09:40:45.967Z,55.79
2018-09-18T09:43:14.427Z,55.36
2018-09-18T09:45:42.816Z,54.78
2018-09-18T09:48:11.178Z,55.94
2018-09-18T09:50:40.380Z,53.68
2018-09-18T09:53:08.820Z,53.57
2018-09-18T09:55:37.133Z,53.65
2018-09-18T09:58:06.553Z,53.22
2018-09-18T10:00:46.008Z,50.70
2018-09-18T10:03:15.523Z,52.55
2018-09-18T10:05:43.832Z,51.71
2018-09-18T10:08:12.149Z,51.20
2018-09-18T10:10:40.541Z,50.15
2018-09-18T10:13:08.889Z,50.23
2018-09-18T10:15:37.371Z,48.86
2018-09-18T10:18:05.972Z,49.90
2018-09-18T10:20:34.269Z,49.83
2018-09-18T10:23:02.597Z,49.03
2018-09-18T10:25:30.928Z,48.48
2018-09-18T10:27:59.672Z,46.71
2018-09-18T10:30:29.068Z,46.56
2018-09-18T10:32:57.428Z,46.54
2018-09-18T10:35:26.676Z,46.01
2018-09-18T10:37:57.849Z,44.70
2018-09-18T10:40:27.553Z,44.06
2018-09-18T10:42:56.438Z,44.25
2018-09-18T10:45:25.594Z,43.21
2018-09-18T10:47:57.430Z,42.84
2018-09-18T10:50:25.959Z,41.66
2018-09-18T10:52:54.926Z,43.86
2018-09-18T10:55:24.377Z,43.80
2018-09-18T10:57:53.887Z,42.45
2018-09-18T11:00:22.456Z,44.30
2018-09-18T11:02:50.833Z,42.10
2018-09-18T11:05:19.150Z,43.83
2018-09-18T11:07:47.609Z,41.74
2018-09-18T11:10:16.177Z,40.93
2018-09-18T11:12:44.573Z,40.86
2018-09-18T11:15:12.945Z,40.77
2018-09-18T11:17:42.297Z,42.20
2018-09-18T11:20:10.714Z,41.38
2018-09-18T11:22:39.940Z,41.05
2018-09-18T11:25:09.325Z,40.47
2018-09-18T11:27:37.806Z,40.64
2018-09-18T11:30:07.193Z,41.10
2018-09-18T11:32:36.513Z,40.89
2018-09-18T11:35:04.929Z,40.16
2018-09-18T11:37:34.272Z,41.22
2018-09-18T11:40:03.618Z,39.69
2018-09-18T11:42:31.973Z,39.72
2018-09-18T11:45:01.406Z,39.07
2018-09-18T11:47:30.819Z,40.31
2018-09-18T11:50:00.043Z,39.00
2018-09-18T11:52:29.325Z,38.65
2018-09-18T11:54:59.589Z,38.73
2018-09-18T11:57:30.298Z,38.93
2018-09-18T11:59:59.606Z,36.97
2018-09-18T12:02:28.965Z,38.94
2018-09-18T12:04:59.775Z,38.62
2018-09-18T12:07:29.023Z,36.44
2018-09-18T12:09:58.968Z,38.06
2018-09-18T12:12:28.517Z,36.05
2018-09-18T12:14:58.739Z,39.03
2018-09-18T12:17:28.206Z,36.98
2018-09-18T12:19:58.045Z,36.95
2018-09-18T12:22:27.533Z,37.57
2018-09-18T12:24:57.658Z,36.50
2018-09-18T12:27:27.457Z,37.29
2018-09-18T12:29:57.962Z,36.88
2018-09-18T12:32:28.497Z,38.45
2018-09-18T12:34:57.849Z,36.42
2018-09-18T12:37:27.325Z,36.20
2018-09-18T12:39:56.560Z,36.63
2018-09-18T12:42:26.878Z,35.85
2018-09-18T12:44:56.459Z,34.90
2018-09-18T12:47:25.465Z,35.91
2018-09-18T12:49:55.769Z,35.93
2018-09-18T12:52:26.490Z,35.50
2018-09-18T12:54:56.708Z,35.81
2018-09-18T12:57:27.318Z,34.69
2018-09-18T12:59:57.621Z,36.37
2018-09-18T13:02:27.711Z,33.26
2018-09-18T13:04:56.420Z,35.46
2018-09-18T13:07:28.792Z,35.50
2018-09-18T13:09:57.722Z,36.73
2018-09-18T13:12:26.846Z,35.59
2018-09-18T13:14:57.742Z,36.21
2018-09-18T13:17:27.588Z,37.04
2018-09-18T13:19:57.594Z,36.40
2018-09-18T13:22:27.430Z,36.26
2018-09-18T13:24:57.335Z,36.62
2018-09-18T13:27:26.950Z,36.95
2018-09-18T13:29:57.491Z,37.49
2018-09-18T13:32:26.507Z,36.48
2018-09-18T13:34:56.841Z,37.16
2018-09-18T13:37:27.776Z,36.91
2018-09-18T13:40:20.519Z,36.93
2018-09-18T13:42:49.732Z,37.30
2018-09-18T13:45:19.044Z,35.76
2018-09-18T13:47:49.058Z,35.46
2018-09-18T13:50:17.465Z,34.49
2018-09-18T13:52:46.838Z,35.58
2018-09-18T13:55:16.154Z,37.72
2018-09-18T13:57:45.411Z,35.74
2018-09-18T14:00:14.745Z,38.05
2018-09-18T14:02:44.174Z,34.42
2018-09-18T14:05:13.396Z,35.89
2018-09-18T14:07:42.605Z,35.09
2018-09-18T14:10:13.923Z,36.43
2018-09-18T14:12:42.241Z,36.42
2018-09-18T14:15:11.788Z,37.31
2018-09-18T14:17:40.405Z,37.39
2018-09-18T14:20:09.717Z,37.57
2018-09-18T14:22:39.023Z,36.51
2018-09-18T14:25:08.298Z,39.47
2018-09-18T14:27:37.505Z,37.71
2018-09-18T14:30:06.834Z,37.18
2018-09-18T14:32:35.499Z,36.77
2018-09-18T14:35:04.717Z,35.91
2018-09-18T14:37:33.078Z,35.08
2018-09-18T14:40:02.309Z,35.77
2018-09-18T14:42:30.685Z,36.86
2018-09-18T14:45:01.089Z,38.30
2018-09-18T14:47:29.537Z,38.30
2018-09-18T14:50:00.364Z,37.04
2018-09-18T14:52:29.861Z,36.36
2018-09-18T14:54:59.123Z,37.94
2018-09-18T14:57:29.093Z,35.68
2018-09-18T14:59:59.651Z,34.69
2018-09-18T15:02:29.477Z,36.60
2018-09-18T15:04:59.825Z,37.37
2018-09-18T15:07:29.109Z,36.90
2018-09-18T15:09:59.445Z,37.93
2018-09-18T15:12:29.617Z,36.89
2018-09-18T15:15:00.412Z,35.95
2018-09-18T15:17:29.723Z,37.22
2018-09-18T15:20:00.493Z,36.63
2018-09-18T15:22:30.118Z,37.47
2018-09-18T15:24:59.310Z,37.87
2018-09-18T15:27:28.672Z,35.58
2018-09-18T15:29:57.693Z,36.58
2018-09-18T15:32:27.229Z,36.56
2018-09-18T15:34:55.710Z,37.40
2018-09-18T15:37:25.157Z,38.41
2018-09-18T15:39:54.218Z,37.59
2018-09-18T15:42:23.547Z,38.34
2018-09-18T15:44:51.866Z,39.86
2018-09-18T15:47:20.208Z,39.32
2018-09-18T15:49:48.831Z,40.07
2018-09-18T15:52:17.278Z,40.13
2018-09-18T15:54:45.765Z,40.41
2018-09-18T15:57:14.433Z,40.54
2018-09-18T15:59:42.868Z,41.41
2018-09-18T16:02:11.421Z,40.84
2018-09-18T16:04:39.769Z,41.77
2018-09-18T16:07:08.308Z,41.41
2018-09-18T16:09:36.847Z,41.14
2018-09-18T16:12:05.262Z,42.03
2018-09-18T16:14:33.596Z,41.11
2018-09-18T16:17:01.982Z,42.22
2018-09-18T16:19:30.279Z,41.87
2018-09-18T16:22:00.117Z,41.28
2018-09-18T16:24:29.543Z,42.23
2018-09-18T16:26:58.818Z,43.04
2018-09-18T16:29:27.693Z,42.82
2018-09-18T16:31:56.604Z,43.72
2018-09-18T16:34:26.989Z,44.38
2018-09-18T16:36:57.649Z,43.84
2018-09-18T16:39:27.664Z,43.98
2018-09-18T16:41:57.090Z,44.81
2018-09-18T16:44:27.537Z,44.58
2018-09-18T16:46:57.845Z,45.35
2018-09-18T16:49:30.512Z,44.38
2018-09-18T16:51:59.945Z,44.70
2018-09-18T16:54:30.256Z,45.83
2018-09-18T16:56:59.423Z,46.08
2018-09-18T16:59:30.146Z,45.52
2018-09-18T17:01:59.523Z,47.16
2018-09-18T17:04:28.778Z,48.10
2018-09-18T17:06:57.689Z,48.26
2018-09-18T17:09:27.616Z,48.95
2018-09-18T17:11:56.731Z,49.22
2018-09-18T17:14:26.683Z,49.93
2018-09-18T17:16:56.652Z,50.20
2018-09-18T17:19:26.181Z,50.49
2018-09-18T17:21:57.672Z,50.94
2018-09-18T17:24:27.568Z,51.09
2018-09-18T17:26:56.717Z,52.07
2018-09-18T17:29:27.271Z,52.27
2018-09-18T17:31:57.503Z,53.43
2018-09-18T17:34:26.600Z,54.02
2018-09-18T17:36:56.632Z,53.24
2018-09-18T17:39:26.991Z,54.95
2018-09-18T17:41:56.376Z,54.76
2018-09-18T17:44:24.824Z,54.53
2018-09-18T17:46:53.652Z,54.27
2018-09-18T17:49:22.137Z,55.32
2018-09-18T17:51:50.551Z,54.54
2018-09-18T17:54:19.828Z,55.27
2018-09-18T17:56:49.013Z,55.04
2018-09-18T17:59:18.293Z,56.08
2018-09-18T18:01:47.426Z,56.82
2018-09-18T18:04:16.864Z,55.93
2018-09-18T18:06:46.149Z,55.91
2018-09-18T18:09:15.565Z,56.82
2018-09-18T18:11:43.984Z,56.67
2018-09-18T18:14:12.469Z,57.64
2018-09-18T18:16:40.866Z,57.95
2018-09-18T18:19:10.130Z,57.65
2018-09-18T18:21:41.015Z,58.02
2018-09-18T18:24:10.268Z,57.80
2018-09-18T18:26:39.285Z,57.93
2018-09-18T18:29:09.301Z,57.88
2018-09-18T18:31:39.751Z,58.35
2018-09-18T18:34:09.549Z,58.42
2018-09-18T18:36:40.377Z,59.18
2018-09-18T18:39:10.424Z,59.16
2018-09-18T18:41:40.208Z,59.08
2018-09-18T18:44:10.590Z,59.96
2018-09-18T18:46:39.778Z,59.65
2018-09-18T18:49:09.257Z,60.63
2018-09-18T18:51:38.469Z,60.78
2018-09-18T18:54:07.024Z,62.13
2018-09-18T18:56:35.423Z,61.34
2018-09-18T18:59:04.060Z,61.79
2018-09-18T19:01:34.368Z,61.80
2018-09-18T19:04:02.739Z,62.07
2018-09-18T19:06:31.299Z,62.33
2018-09-18T19:09:00.217Z,63.45
2018-09-18T19:11:29.461Z,63.46
2018-09-18T19:13:58.650Z,62.79
2018-09-18T19:16:27.857Z,63.61
2018-09-18T19:18:57.706Z,63.48
2018-09-18T19:21:27.760Z,63.57
2018-09-18T19:23:57.762Z,63.60
2018-09-18T19:26:28.081Z,63.85
2018-09-18T19:28:57.811Z,64.23
2018-09-18T19:31:27.938Z,64.74
2018-09-18T19:33:57.411Z,64.01
2018-09-18T19:36:27.749Z,64.91
2018-09-18T19:38:57.674Z,64.44
2018-09-18T19:41:27.861Z,65.00
2018-09-18T19:43:57.357Z,65.29
2018-09-18T19:46:27.612Z,64.56
2018-09-18T19:48:56.648Z,65.16
2018-09-18T19:51:25.933Z,65.11
2018-09-18T19:53:56.739Z,66.00
2018-09-18T19:56:26.698Z,65.76
2018-09-18T19:58:55.269Z,66.11
2018-09-18T20:01:23.773Z,66.08
2018-09-18T20:03:52.116Z,66.46
2018-09-18T20:06:20.447Z,67.48
2018-09-18T20:08:49.076Z,66.57
2018-09-18T20:11:17.588Z,66.81
2018-09-18T20:13:46.835Z,66.44
2018-09-18T20:16:15.229Z,67.67
2018-09-18T20:18:43.661Z,66.83
2018-09-18T20:21:12.221Z,66.39
2018-09-18T20:23:40.770Z,66.99
2018-09-18T20:26:09.912Z,67.08
2018-09-18T20:28:39.528Z,67.05
2018-09-18T20:31:07.972Z,67.23
2018-09-18T20:33:36.317Z,67.09
2018-09-18T20:36:06.079Z,66.74
2018-09-18T20:38:34.517Z,66.29
2018-09-18T20:41:03.798Z,64.85
2018-09-18T20:43:33.258Z,65.42
2018-09-18T20:46:02.785Z,65.18
2018-09-18T20:48:32.055Z,65.95
2018-09-18T20:51:01.408Z,66.59
2018-09-18T20:53:30.672Z,65.65
2018-09-18T20:56:00.597Z,64.94
2018-09-18T20:58:29.918Z,65.25
2018-09-18T21:00:59.377Z,65.19
2018-09-18T21:03:28.862Z,65.08
2018-09-18T21:05:57.877Z,65.27
2018-09-18T21:08:26.293Z,63.23
2018-09-18T21:10:54.646Z,64.42
2018-09-18T21:13:22.954Z,64.93
2018-09-18T21:15:51.288Z,64.49
2018-09-18T21:18:20.660Z,64.37
2018-09-18T21:20:49.037Z,63.76
2018-09-18T21:23:17.549Z,64.04
2018-09-18T21:26:18.132Z,64.03
2018-09-18T21:28:47.918Z,63.70
2018-09-18T21:31:17.444Z,64.14
2018-09-18T21:33:45.790Z,63.88
2018-09-18T21:36:14.263Z,63.49
2018-09-18T21:38:42.662Z,64.40
2018-09-18T21:41:10.983Z,64.24
2018-09-18T21:43:41.021Z,64.45
2018-09-18T21:46:10.470Z,64.81
2018-09-18T21:48:40.088Z,64.85
2018-09-18T21:51:09.763Z,64.92
2018-09-18T21:53:39.383Z,65.37
2018-09-18T21:56:10.317Z,65.93
2018-09-18T21:58:40.741Z,66.76
2018-09-18T22:01:09.973Z,67.34
2018-09-18T22:03:40.801Z,66.81
2018-09-18T22:06:11.198Z,67.38
2018-09-18T22:08:40.439Z,67.20
2018-09-18T22:11:11.228Z,67.05
2018-09-18T22:13:40.560Z,67.72
2018-09-18T22:16:09.934Z,67.78
2018-09-18T22:18:39.344Z,67.40
2018-09-18T22:21:09.353Z,67.36
2018-09-18T22:23:38.816Z,67.54
2018-09-18T22:26:07.440Z,66.95
2018-09-18T22:31:38.858Z,67.20
2018-09-18T22:34:08.873Z,67.71
2018-09-18T22:36:39.122Z,68.09
2018-09-18T22:39:09.657Z,69.09
2018-09-18T22:41:39.312Z,69.86
2018-09-18T22:44:08.530Z,69.81
2018-09-18T22:46:38.290Z,69.41
2018-09-18T22:49:07.566Z,69.46
2018-09-18T22:51:37.196Z,68.89
2018-09-18T22:54:06.314Z,69.62
2018-09-18T22:56:35.140Z,70.47
2018-09-18T22:59:03.584Z,70.13
2018-09-18T23:01:34.137Z,70.63
2018-09-18T23:04:03.433Z,69.50
2018-09-18T23:06:31.872Z,69.99
2018-09-18T23:09:01.557Z,70.20
2018-09-18T23:11:30.937Z,69.92
2018-09-18T23:14:00.261Z,70.43
2018-09-18T23:16:29.597Z,71.44
2018-09-18T23:18:58.001Z,70.06
2018-09-18T23:21:26.289Z,70.64
2018-09-18T23:23:55.754Z,71.27
2018-09-18T23:26:24.099Z,71.27
2018-09-18T23:28:53.493Z,71.48
2018-09-18T23:31:21.926Z,71.95
2018-09-18T23:33:51.305Z,72.03
2018-09-18T23:36:19.667Z,72.97
2018-09-18T23:38:49.965Z,72.44
2018-09-18T23:41:19.885Z,71.99
2018-09-18T23:43:50.512Z,72.12
2018-09-18T23:46:20.061Z,70.85
2018-09-18T23:48:50.044Z,70.40
2018-09-18T23:51:19.563Z,69.53
2018-09-18T23:53:47.880Z,69.88
2018-09-18T23:56:16.378Z,70.12
2018-09-18T23:58:45.633Z,70.20
